sensor_id;sensor_type;location;lat;lon;timestamp;temperature;humidity
80426;DHT22;69766;51.476;5.704;2023-09-07T00:00:10;17.30;99.90
80426;DHT22;69766;51.476;5.704;2023-09-07T00:02:36;17.30;99.90
80426;DHT22;69766;51.476;5.704;2023-09-07T00:05:02;17.30;99.90
80426;DHT22;69766;51.476;5.704;2023-09-07T00:07:27;17.30;99.90
80426;DHT22;69766;51.476;5.704;2023-09-07T00:09:53;17.30;99.90
80426;DHT22;69766;51.476;5.704;2023-09-07T00:12:19;17.20;99.90
80426;DHT22;69766;51.476;5.704;2023-09-07T00:14:45;17.20;99.90
80426;DHT22;69766;51.476;5.704;2023-09-07T00:17:11;17.20;99.90
80426;DHT22;69766;51.476;5.704;2023-09-07T00:19:37;17.10;99.90
80426;DHT22;69766;51.476;5.704;2023-09-07T00:22:03;17.10;99.90
80426;DHT22;69766;51.476;5.704;2023-09-07T00:24:30;17.10;99.90
80426;DHT22;69766;51.476;5.704;2023-09-07T00:26:57;17.00;99.90
80426;DHT22;69766;51.476;5.704;2023-09-07T00:29:23;17.00;99.90
80426;DHT22;69766;51.476;5.704;2023-09-07T00:31:49;17.00;99.90
80426;DHT22;69766;51.476;5.704;2023-09-07T00:34:14;17.00;99.90
80426;DHT22;69766;51.476;5.704;2023-09-07T00:36:40;16.90;99.90
80426;DHT22;69766;51.476;5.704;2023-09-07T00:39:06;17.00;99.90
80426;DHT22;69766;51.476;5.704;2023-09-07T00:41:31;16.90;99.90
80426;DHT22;69766;51.476;5.704;2023-09-07T00:43:57;16.80;99.90
80426;DHT22;69766;51.476;5.704;2023-09-07T00:46:23;16.90;99.90
80426;DHT22;69766;51.476;5.704;2023-09-07T00:48:49;16.80;99.90
80426;DHT22;69766;51.476;5.704;2023-09-07T00:51:15;16.80;99.90
80426;DHT22;69766;51.476;5.704;2023-09-07T00:53:41;16.70;99.90
80426;DHT22;69766;51.476;5.704;2023-09-07T00:56:07;16.60;99.90
80426;DHT22;69766;51.476;5.704;2023-09-07T00:58:33;16.60;99.90
80426;DHT22;69766;51.476;5.704;2023-09-07T01:01:00;16.60;99.90
80426;DHT22;69766;51.476;5.704;2023-09-07T01:03:26;16.60;99.90
80426;DHT22;69766;51.476;5.704;2023-09-07T01:08:25;16.60;99.90
80426;DHT22;69766;51.476;5.704;2023-09-07T01:10:52;16.60;99.90
80426;DHT22;69766;51.476;5.704;2023-09-07T01:13:19;16.50;99.90
80426;DHT22;69766;51.476;5.704;2023-09-07T01:15:46;16.50;99.90
80426;DHT22;69766;51.476;5.704;2023-09-07T01:18:14;16.50;99.90
80426;DHT22;69766;51.476;5.704;2023-09-07T01:20:41;16.50;99.90
80426;DHT22;69766;51.476;5.704;2023-09-07T01:23:08;16.40;99.90
80426;DHT22;69766;51.476;5.704;2023-09-07T01:25:35;16.50;99.90
80426;DHT22;69766;51.476;5.704;2023-09-07T01:28:01;16.50;99.90
80426;DHT22;69766;51.476;5.704;2023-09-07T01:30:29;16.50;99.90
80426;DHT22;69766;51.476;5.704;2023-09-07T01:32:55;16.50;99.90
80426;DHT22;69766;51.476;5.704;2023-09-07T01:35:21;16.40;99.90
80426;DHT22;69766;51.476;5.704;2023-09-07T01:37:50;16.40;99.90
80426;DHT22;69766;51.476;5.704;2023-09-07T01:40:15;16.30;99.90
80426;DHT22;69766;51.476;5.704;2023-09-07T01:42:41;16.20;99.90
80426;DHT22;69766;51.476;5.704;2023-09-07T01:45:07;16.20;99.90
80426;DHT22;69766;51.476;5.704;2023-09-07T01:47:33;16.10;99.90
80426;DHT22;69766;51.476;5.704;2023-09-07T01:49:58;16.00;99.90
80426;DHT22;69766;51.476;5.704;2023-09-07T01:52:24;16.10;99.90
80426;DHT22;69766;51.476;5.704;2023-09-07T01:54:50;16.00;99.90
80426;DHT22;69766;51.476;5.704;2023-09-07T01:57:18;16.00;99.90
80426;DHT22;69766;51.476;5.704;2023-09-07T01:59:44;16.00;99.90
80426;DHT22;69766;51.476;5.704;2023-09-07T02:02:10;16.00;99.90
80426;DHT22;69766;51.476;5.704;2023-09-07T02:04:36;15.90;99.90
80426;DHT22;69766;51.476;5.704;2023-09-07T02:07:01;15.90;99.90
80426;DHT22;69766;51.476;5.704;2023-09-07T02:09:27;15.90;99.90
80426;DHT22;69766;51.476;5.704;2023-09-07T02:11:54;15.80;99.90
80426;DHT22;69766;51.476;5.704;2023-09-07T02:14:22;15.80;99.90
80426;DHT22;69766;51.476;5.704;2023-09-07T02:16:48;15.80;99.90
80426;DHT22;69766;51.476;5.704;2023-09-07T02:19:13;15.80;99.90
80426;DHT22;69766;51.476;5.704;2023-09-07T02:21:39;15.80;99.90
80426;DHT22;69766;51.476;5.704;2023-09-07T02:24:05;15.80;99.90
80426;DHT22;69766;51.476;5.704;2023-09-07T02:26:31;15.70;99.90
80426;DHT22;69766;51.476;5.704;2023-09-07T02:28:57;15.70;99.90
80426;DHT22;69766;51.476;5.704;2023-09-07T02:31:22;15.80;99.90
80426;DHT22;69766;51.476;5.704;2023-09-07T02:33:49;15.70;99.90
80426;DHT22;69766;51.476;5.704;2023-09-07T02:36:20;15.70;99.90
80426;DHT22;69766;51.476;5.704;2023-09-07T02:38:46;15.70;99.90
80426;DHT22;69766;51.476;5.704;2023-09-07T02:41:11;15.70;99.90
80426;DHT22;69766;51.476;5.704;2023-09-07T02:43:37;15.60;99.90
80426;DHT22;69766;51.476;5.704;2023-09-07T02:46:03;15.60;99.90
80426;DHT22;69766;51.476;5.704;2023-09-07T02:48:29;15.60;99.90
80426;DHT22;69766;51.476;5.704;2023-09-07T02:50:54;15.50;99.90
80426;DHT22;69766;51.476;5.704;2023-09-07T02:53:23;15.50;99.90
80426;DHT22;69766;51.476;5.704;2023-09-07T02:55:50;15.50;99.90
80426;DHT22;69766;51.476;5.704;2023-09-07T02:58:15;15.50;99.90
80426;DHT22;69766;51.476;5.704;2023-09-07T03:00:44;15.50;99.90
80426;DHT22;69766;51.476;5.704;2023-09-07T03:03:13;15.40;99.90
80426;DHT22;69766;51.476;5.704;2023-09-07T03:05:42;15.40;99.90
80426;DHT22;69766;51.476;5.704;2023-09-07T03:08:08;15.40;99.90
80426;DHT22;69766;51.476;5.704;2023-09-07T03:10:38;15.30;99.90
80426;DHT22;69766;51.476;5.704;2023-09-07T03:13:05;15.30;99.90
80426;DHT22;69766;51.476;5.704;2023-09-07T03:15:31;15.30;99.90
80426;DHT22;69766;51.476;5.704;2023-09-07T03:17:57;15.20;99.90
80426;DHT22;69766;51.476;5.704;2023-09-07T03:20:23;15.20;99.90
80426;DHT22;69766;51.476;5.704;2023-09-07T03:22:49;15.20;99.90
80426;DHT22;69766;51.476;5.704;2023-09-07T03:25:17;15.10;99.90
80426;DHT22;69766;51.476;5.704;2023-09-07T03:27:43;15.10;99.90
80426;DHT22;69766;51.476;5.704;2023-09-07T03:30:09;15.00;99.90
80426;DHT22;69766;51.476;5.704;2023-09-07T03:32:35;15.10;99.90
80426;DHT22;69766;51.476;5.704;2023-09-07T03:35:03;15.10;99.90
80426;DHT22;69766;51.476;5.704;2023-09-07T03:37:35;15.00;99.90
80426;DHT22;69766;51.476;5.704;2023-09-07T03:40:01;15.10;99.90
80426;DHT22;69766;51.476;5.704;2023-09-07T03:42:27;15.00;99.90
80426;DHT22;69766;51.476;5.704;2023-09-07T03:44:52;15.00;99.90
80426;DHT22;69766;51.476;5.704;2023-09-07T03:47:18;15.00;99.90
80426;DHT22;69766;51.476;5.704;2023-09-07T03:49:44;15.00;99.90
80426;DHT22;69766;51.476;5.704;2023-09-07T03:52:10;15.00;99.90
80426;DHT22;69766;51.476;5.704;2023-09-07T03:54:37;14.90;99.90
80426;DHT22;69766;51.476;5.704;2023-09-07T03:57:03;14.80;99.90
80426;DHT22;69766;51.476;5.704;2023-09-07T03:59:29;14.80;99.90
80426;DHT22;69766;51.476;5.704;2023-09-07T04:01:55;14.80;99.90
80426;DHT22;69766;51.476;5.704;2023-09-07T04:04:20;14.80;99.90
80426;DHT22;69766;51.476;5.704;2023-09-07T04:06:47;14.80;99.90
80426;DHT22;69766;51.476;5.704;2023-09-07T04:09:13;14.80;99.90
80426;DHT22;69766;51.476;5.704;2023-09-07T04:11:40;14.80;99.90
80426;DHT22;69766;51.476;5.704;2023-09-07T04:14:05;14.80;99.90
80426;DHT22;69766;51.476;5.704;2023-09-07T04:16:31;14.80;99.90
80426;DHT22;69766;51.476;5.704;2023-09-07T04:18:57;14.80;99.90
80426;DHT22;69766;51.476;5.704;2023-09-07T04:21:22;14.70;99.90
80426;DHT22;69766;51.476;5.704;2023-09-07T04:23:48;14.70;99.90
80426;DHT22;69766;51.476;5.704;2023-09-07T04:26:14;14.70;99.90
80426;DHT22;69766;51.476;5.704;2023-09-07T04:28:40;14.60;99.90
80426;DHT22;69766;51.476;5.704;2023-09-07T04:31:06;14.60;99.90
80426;DHT22;69766;51.476;5.704;2023-09-07T04:33:33;14.60;99.90
80426;DHT22;69766;51.476;5.704;2023-09-07T04:36:15;14.50;99.90
80426;DHT22;69766;51.476;5.704;2023-09-07T04:38:41;14.70;99.90
80426;DHT22;69766;51.476;5.704;2023-09-07T04:41:11;14.70;99.90
80426;DHT22;69766;51.476;5.704;2023-09-07T04:43:38;14.70;99.90
80426;DHT22;69766;51.476;5.704;2023-09-07T04:46:06;14.70;99.90
80426;DHT22;69766;51.476;5.704;2023-09-07T04:48:32;14.60;99.90
80426;DHT22;69766;51.476;5.704;2023-09-07T04:51:00;14.60;99.90
80426;DHT22;69766;51.476;5.704;2023-09-07T04:53:28;14.60;99.90
80426;DHT22;69766;51.476;5.704;2023-09-07T04:55:54;14.60;99.90
80426;DHT22;69766;51.476;5.704;2023-09-07T04:58:20;14.50;99.90
80426;DHT22;69766;51.476;5.704;2023-09-07T05:00:46;14.50;99.90
80426;DHT22;69766;51.476;5.704;2023-09-07T05:03:11;14.50;99.90
80426;DHT22;69766;51.476;5.704;2023-09-07T05:05:38;14.50;99.90
80426;DHT22;69766;51.476;5.704;2023-09-07T05:08:05;14.60;99.90
80426;DHT22;69766;51.476;5.704;2023-09-07T05:10:33;14.60;99.90
80426;DHT22;69766;51.476;5.704;2023-09-07T05:12:59;14.60;99.90
80426;DHT22;69766;51.476;5.704;2023-09-07T05:15:25;14.60;99.90
80426;DHT22;69766;51.476;5.704;2023-09-07T05:17:51;14.60;99.90
80426;DHT22;69766;51.476;5.704;2023-09-07T05:20:17;14.60;99.90
80426;DHT22;69766;51.476;5.704;2023-09-07T05:22:43;14.60;99.90
80426;DHT22;69766;51.476;5.704;2023-09-07T05:25:12;14.70;99.90
80426;DHT22;69766;51.476;5.704;2023-09-07T05:27:38;14.70;99.90
80426;DHT22;69766;51.476;5.704;2023-09-07T05:30:05;14.70;99.90
80426;DHT22;69766;51.476;5.704;2023-09-07T05:32:31;14.70;99.90
80426;DHT22;69766;51.476;5.704;2023-09-07T05:34:56;14.70;99.90
80426;DHT22;69766;51.476;5.704;2023-09-07T05:37:22;14.70;99.90
80426;DHT22;69766;51.476;5.704;2023-09-07T05:39:51;14.70;99.90
80426;DHT22;69766;51.476;5.704;2023-09-07T05:42:17;14.60;99.90
80426;DHT22;69766;51.476;5.704;2023-09-07T05:44:42;14.60;99.90
80426;DHT22;69766;51.476;5.704;2023-09-07T05:47:08;14.70;99.90
80426;DHT22;69766;51.476;5.704;2023-09-07T05:49:34;14.70;99.90
80426;DHT22;69766;51.476;5.704;2023-09-07T05:52:00;14.80;99.90
80426;DHT22;69766;51.476;5.704;2023-09-07T05:54:25;14.80;99.90
80426;DHT22;69766;51.476;5.704;2023-09-07T05:56:51;14.80;99.90
80426;DHT22;69766;51.476;5.704;2023-09-07T05:59:17;14.90;99.90
80426;DHT22;69766;51.476;5.704;2023-09-07T06:01:44;15.00;99.90
80426;DHT22;69766;51.476;5.704;2023-09-07T06:04:09;15.00;99.90
80426;DHT22;69766;51.476;5.704;2023-09-07T06:06:35;15.10;99.90
80426;DHT22;69766;51.476;5.704;2023-09-07T06:09:01;15.20;99.90
80426;DHT22;69766;51.476;5.704;2023-09-07T06:11:26;15.20;99.90
80426;DHT22;69766;51.476;5.704;2023-09-07T06:13:52;15.30;99.90
80426;DHT22;69766;51.476;5.704;2023-09-07T06:16:18;15.40;99.90
80426;DHT22;69766;51.476;5.704;2023-09-07T06:18:44;15.40;99.90
80426;DHT22;69766;51.476;5.704;2023-09-07T06:21:12;15.50;99.90
80426;DHT22;69766;51.476;5.704;2023-09-07T06:23:37;15.60;99.90
80426;DHT22;69766;51.476;5.704;2023-09-07T06:26:03;15.70;99.90
80426;DHT22;69766;51.476;5.704;2023-09-07T06:28:29;15.70;99.90
80426;DHT22;69766;51.476;5.704;2023-09-07T06:30:55;15.80;99.90
80426;DHT22;69766;51.476;5.704;2023-09-07T06:33:21;16.00;99.90
80426;DHT22;69766;51.476;5.704;2023-09-07T06:35:46;16.20;99.90
80426;DHT22;69766;51.476;5.704;2023-09-07T06:38:12;16.40;99.90
80426;DHT22;69766;51.476;5.704;2023-09-07T06:40:37;16.50;99.90
80426;DHT22;69766;51.476;5.704;2023-09-07T06:43:03;16.60;99.90
80426;DHT22;69766;51.476;5.704;2023-09-07T06:45:37;16.70;99.90
80426;DHT22;69766;51.476;5.704;2023-09-07T06:48:03;16.50;99.90
80426;DHT22;69766;51.476;5.704;2023-09-07T06:50:29;16.60;99.90
80426;DHT22;69766;51.476;5.704;2023-09-07T06:52:55;16.70;99.90
80426;DHT22;69766;51.476;5.704;2023-09-07T06:55:21;16.90;99.90
80426;DHT22;69766;51.476;5.704;2023-09-07T06:57:46;17.00;99.90
80426;DHT22;69766;51.476;5.704;2023-09-07T07:00:12;17.20;99.90
80426;DHT22;69766;51.476;5.704;2023-09-07T07:02:38;17.10;99.90
80426;DHT22;69766;51.476;5.704;2023-09-07T07:05:04;17.20;99.90
80426;DHT22;69766;51.476;5.704;2023-09-07T07:07:30;17.30;99.90
80426;DHT22;69766;51.476;5.704;2023-09-07T07:09:56;17.30;99.90
80426;DHT22;69766;51.476;5.704;2023-09-07T07:12:22;17.40;99.90
80426;DHT22;69766;51.476;5.704;2023-09-07T07:14:48;17.50;99.90
80426;DHT22;69766;51.476;5.704;2023-09-07T07:17:14;17.50;99.90
80426;DHT22;69766;51.476;5.704;2023-09-07T07:19:39;17.70;99.90
80426;DHT22;69766;51.476;5.704;2023-09-07T07:22:06;17.90;99.90
80426;DHT22;69766;51.476;5.704;2023-09-07T07:24:32;18.20;99.90
80426;DHT22;69766;51.476;5.704;2023-09-07T07:26:58;18.20;99.90
80426;DHT22;69766;51.476;5.704;2023-09-07T07:29:24;18.20;99.90
80426;DHT22;69766;51.476;5.704;2023-09-07T07:31:50;18.20;99.90
80426;DHT22;69766;51.476;5.704;2023-09-07T07:34:15;18.40;99.90
80426;DHT22;69766;51.476;5.704;2023-09-07T07:36:41;18.40;99.90
80426;DHT22;69766;51.476;5.704;2023-09-07T07:39:07;18.50;99.90
80426;DHT22;69766;51.476;5.704;2023-09-07T07:41:33;18.60;99.90
80426;DHT22;69766;51.476;5.704;2023-09-07T07:43:58;18.80;99.90
80426;DHT22;69766;51.476;5.704;2023-09-07T07:46:27;18.80;99.90
80426;DHT22;69766;51.476;5.704;2023-09-07T07:48:52;19.00;99.90
80426;DHT22;69766;51.476;5.704;2023-09-07T07:51:18;19.30;99.90
80426;DHT22;69766;51.476;5.704;2023-09-07T07:53:44;19.30;99.90
80426;DHT22;69766;51.476;5.704;2023-09-07T07:56:17;19.20;99.90
80426;DHT22;69766;51.476;5.704;2023-09-07T07:58:42;19.30;99.90
80426;DHT22;69766;51.476;5.704;2023-09-07T08:01:18;19.50;99.90
80426;DHT22;69766;51.476;5.704;2023-09-07T08:03:45;19.60;99.90
80426;DHT22;69766;51.476;5.704;2023-09-07T08:06:11;19.80;99.90
80426;DHT22;69766;51.476;5.704;2023-09-07T08:08:39;19.90;99.90
80426;DHT22;69766;51.476;5.704;2023-09-07T08:11:05;20.00;99.90
80426;DHT22;69766;51.476;5.704;2023-09-07T08:13:35;20.20;99.90
80426;DHT22;69766;51.476;5.704;2023-09-07T08:16:01;20.30;99.90
80426;DHT22;69766;51.476;5.704;2023-09-07T08:18:27;20.20;99.90
80426;DHT22;69766;51.476;5.704;2023-09-07T08:20:54;20.30;99.90
80426;DHT22;69766;51.476;5.704;2023-09-07T08:23:21;20.50;99.90
80426;DHT22;69766;51.476;5.704;2023-09-07T08:25:47;20.60;99.90
80426;DHT22;69766;51.476;5.704;2023-09-07T08:28:13;20.60;99.90
80426;DHT22;69766;51.476;5.704;2023-09-07T08:30:41;20.70;99.90
80426;DHT22;69766;51.476;5.704;2023-09-07T08:33:07;20.80;99.90
80426;DHT22;69766;51.476;5.704;2023-09-07T08:35:33;20.90;99.90
80426;DHT22;69766;51.476;5.704;2023-09-07T08:38:01;21.10;99.90
80426;DHT22;69766;51.476;5.704;2023-09-07T08:40:30;21.60;99.90
80426;DHT22;69766;51.476;5.704;2023-09-07T08:43:00;22.30;99.90
80426;DHT22;69766;51.476;5.704;2023-09-07T08:45:29;22.60;99.90
80426;DHT22;69766;51.476;5.704;2023-09-07T08:47:58;22.60;99.90
80426;DHT22;69766;51.476;5.704;2023-09-07T08:50:24;22.60;99.90
80426;DHT22;69766;51.476;5.704;2023-09-07T08:52:52;22.40;99.90
80426;DHT22;69766;51.476;5.704;2023-09-07T08:55:19;22.50;99.90
80426;DHT22;69766;51.476;5.704;2023-09-07T08:57:45;22.40;99.90
80426;DHT22;69766;51.476;5.704;2023-09-07T09:00:11;22.50;99.90
80426;DHT22;69766;51.476;5.704;2023-09-07T09:02:42;22.70;99.90
80426;DHT22;69766;51.476;5.704;2023-09-07T09:05:12;22.90;99.90
80426;DHT22;69766;51.476;5.704;2023-09-07T09:07:40;22.70;99.90
80426;DHT22;69766;51.476;5.704;2023-09-07T09:10:06;22.80;99.90
80426;DHT22;69766;51.476;5.704;2023-09-07T09:12:33;22.80;99.90
80426;DHT22;69766;51.476;5.704;2023-09-07T09:14:59;22.80;99.90
80426;DHT22;69766;51.476;5.704;2023-09-07T09:17:29;22.80;99.90
80426;DHT22;69766;51.476;5.704;2023-09-07T09:19:54;22.80;99.90
80426;DHT22;69766;51.476;5.704;2023-09-07T09:22:21;22.80;99.90
80426;DHT22;69766;51.476;5.704;2023-09-07T09:24:50;23.00;99.90
80426;DHT22;69766;51.476;5.704;2023-09-07T09:27:16;23.00;99.90
80426;DHT22;69766;51.476;5.704;2023-09-07T09:29:42;23.20;99.90
80426;DHT22;69766;51.476;5.704;2023-09-07T09:32:09;23.50;99.90
80426;DHT22;69766;51.476;5.704;2023-09-07T09:34:36;23.90;99.90
80426;DHT22;69766;51.476;5.704;2023-09-07T09:37:02;24.50;99.90
80426;DHT22;69766;51.476;5.704;2023-09-07T09:39:31;25.20;99.90
80426;DHT22;69766;51.476;5.704;2023-09-07T09:41:57;26.30;99.90
80426;DHT22;69766;51.476;5.704;2023-09-07T09:44:24;27.60;99.90
80426;DHT22;69766;51.476;5.704;2023-09-07T09:46:53;28.60;99.90
80426;DHT22;69766;51.476;5.704;2023-09-07T09:49:26;30.00;99.70
80426;DHT22;69766;51.476;5.704;2023-09-07T09:51:53;31.30;96.20
80426;DHT22;69766;51.476;5.704;2023-09-07T09:54:22;32.40;92.90
80426;DHT22;69766;51.476;5.704;2023-09-07T09:56:48;32.60;89.40
80426;DHT22;69766;51.476;5.704;2023-09-07T09:59:15;32.20;88.30
80426;DHT22;69766;51.476;5.704;2023-09-07T10:01:43;31.90;82.40
80426;DHT22;69766;51.476;5.704;2023-09-07T10:04:14;32.70;80.10
80426;DHT22;69766;51.476;5.704;2023-09-07T10:06:53;32.80;80.20
80426;DHT22;69766;51.476;5.704;2023-09-07T10:09:20;33.60;78.10
80426;DHT22;69766;51.476;5.704;2023-09-07T10:11:54;33.20;75.80
80426;DHT22;69766;51.476;5.704;2023-09-07T10:14:20;33.30;74.80
80426;DHT22;69766;51.476;5.704;2023-09-07T10:16:53;33.50;73.70
80426;DHT22;69766;51.476;5.704;2023-09-07T10:19:25;33.30;71.00
80426;DHT22;69766;51.476;5.704;2023-09-07T10:21:55;32.90;71.30
80426;DHT22;69766;51.476;5.704;2023-09-07T10:24:32;34.20;69.00
80426;DHT22;69766;51.476;5.704;2023-09-07T10:27:08;33.20;68.80
80426;DHT22;69766;51.476;5.704;2023-09-07T10:32:09;32.70;72.00
80426;DHT22;69766;51.476;5.704;2023-09-07T10:34:39;33.10;70.90
80426;DHT22;69766;51.476;5.704;2023-09-07T10:37:07;33.90;69.40
80426;DHT22;69766;51.476;5.704;2023-09-07T10:39:35;34.70;67.80
80426;DHT22;69766;51.476;5.704;2023-09-07T10:42:02;34.30;69.10
80426;DHT22;69766;51.476;5.704;2023-09-07T10:44:29;33.30;65.10
80426;DHT22;69766;51.476;5.704;2023-09-07T10:46:57;32.60;72.30
80426;DHT22;69766;51.476;5.704;2023-09-07T10:49:23;32.10;71.60
80426;DHT22;69766;51.476;5.704;2023-09-07T10:51:49;30.90;75.20
80426;DHT22;69766;51.476;5.704;2023-09-07T10:54:15;31.10;77.60
80426;DHT22;69766;51.476;5.704;2023-09-07T10:56:44;30.40;77.60
80426;DHT22;69766;51.476;5.704;2023-09-07T10:59:11;30.00;81.20
80426;DHT22;69766;51.476;5.704;2023-09-07T11:01:37;29.80;78.10
80426;DHT22;69766;51.476;5.704;2023-09-07T11:04:02;29.50;84.10
80426;DHT22;69766;51.476;5.704;2023-09-07T11:06:29;29.00;83.80
80426;DHT22;69766;51.476;5.704;2023-09-07T11:08:55;29.00;87.40
80426;DHT22;69766;51.476;5.704;2023-09-07T11:11:24;28.90;84.00
80426;DHT22;69766;51.476;5.704;2023-09-07T11:13:51;28.90;89.10
80426;DHT22;69766;51.476;5.704;2023-09-07T11:16:17;28.50;89.30
80426;DHT22;69766;51.476;5.704;2023-09-07T11:18:43;28.80;87.90
80426;DHT22;69766;51.476;5.704;2023-09-07T11:21:10;29.00;83.20
80426;DHT22;69766;51.476;5.704;2023-09-07T11:23:35;29.90;84.20
80426;DHT22;69766;51.476;5.704;2023-09-07T11:26:05;29.90;84.40
80426;DHT22;69766;51.476;5.704;2023-09-07T11:28:31;29.70;84.20
80426;DHT22;69766;51.476;5.704;2023-09-07T11:30:58;29.90;81.70
80426;DHT22;69766;51.476;5.704;2023-09-07T11:33:24;30.30;82.60
80426;DHT22;69766;51.476;5.704;2023-09-07T11:35:51;30.60;81.20
80426;DHT22;69766;51.476;5.704;2023-09-07T11:38:17;30.40;82.30
80426;DHT22;69766;51.476;5.704;2023-09-07T11:40:44;30.00;87.00
80426;DHT22;69766;51.476;5.704;2023-09-07T11:43:17;30.00;85.60
80426;DHT22;69766;51.476;5.704;2023-09-07T11:45:46;30.20;85.30
80426;DHT22;69766;51.476;5.704;2023-09-07T11:48:18;30.70;82.40
80426;DHT22;69766;51.476;5.704;2023-09-07T11:50:44;31.30;80.30
80426;DHT22;69766;51.476;5.704;2023-09-07T11:53:10;32.40;79.10
80426;DHT22;69766;51.476;5.704;2023-09-07T11:55:38;33.40;76.50
80426;DHT22;69766;51.476;5.704;2023-09-07T11:58:06;33.90;74.80
80426;DHT22;69766;51.476;5.704;2023-09-07T12:00:35;34.30;69.20
80426;DHT22;69766;51.476;5.704;2023-09-07T12:03:00;34.30;71.60
80426;DHT22;69766;51.476;5.704;2023-09-07T12:05:26;34.70;70.00
80426;DHT22;69766;51.476;5.704;2023-09-07T12:07:55;34.70;68.60
80426;DHT22;69766;51.476;5.704;2023-09-07T12:10:21;35.50;66.20
80426;DHT22;69766;51.476;5.704;2023-09-07T12:12:46;35.00;63.40
80426;DHT22;69766;51.476;5.704;2023-09-07T12:15:12;35.00;62.80
80426;DHT22;69766;51.476;5.704;2023-09-07T12:17:41;35.70;65.50
80426;DHT22;69766;51.476;5.704;2023-09-07T12:20:07;35.40;62.10
80426;DHT22;69766;51.476;5.704;2023-09-07T12:22:38;35.40;64.20
80426;DHT22;69766;51.476;5.704;2023-09-07T12:25:05;33.80;64.40
80426;DHT22;69766;51.476;5.704;2023-09-07T12:27:36;35.10;62.80
80426;DHT22;69766;51.476;5.704;2023-09-07T12:30:02;36.00;62.80
80426;DHT22;69766;51.476;5.704;2023-09-07T12:32:32;36.40;61.50
80426;DHT22;69766;51.476;5.704;2023-09-07T12:34:58;36.40;61.10
80426;DHT22;69766;51.476;5.704;2023-09-07T12:37:27;36.50;60.60
80426;DHT22;69766;51.476;5.704;2023-09-07T12:39:59;36.40;60.70
80426;DHT22;69766;51.476;5.704;2023-09-07T12:42:25;36.10;58.30
80426;DHT22;69766;51.476;5.704;2023-09-07T12:44:51;36.60;59.40
80426;DHT22;69766;51.476;5.704;2023-09-07T12:47:16;37.50;58.00
80426;DHT22;69766;51.476;5.704;2023-09-07T12:49:42;36.10;59.90
80426;DHT22;69766;51.476;5.704;2023-09-07T12:52:07;35.70;57.60
80426;DHT22;69766;51.476;5.704;2023-09-07T12:54:34;35.20;58.30
80426;DHT22;69766;51.476;5.704;2023-09-07T12:57:06;35.90;59.10
80426;DHT22;69766;51.476;5.704;2023-09-07T12:59:32;36.20;57.00
80426;DHT22;69766;51.476;5.704;2023-09-07T13:01:58;36.90;56.10
80426;DHT22;69766;51.476;5.704;2023-09-07T13:04:24;36.20;57.80
80426;DHT22;69766;51.476;5.704;2023-09-07T13:06:53;35.40;58.30
80426;DHT22;69766;51.476;5.704;2023-09-07T13:09:21;35.20;59.20
80426;DHT22;69766;51.476;5.704;2023-09-07T13:11:47;35.00;59.80
80426;DHT22;69766;51.476;5.704;2023-09-07T13:14:13;35.80;57.90
80426;DHT22;69766;51.476;5.704;2023-09-07T13:16:39;35.70;56.70
80426;DHT22;69766;51.476;5.704;2023-09-07T13:19:04;36.30;54.60
80426;DHT22;69766;51.476;5.704;2023-09-07T13:21:31;37.30;53.50
80426;DHT22;69766;51.476;5.704;2023-09-07T13:23:57;36.30;57.60
80426;DHT22;69766;51.476;5.704;2023-09-07T13:26:23;35.60;57.20
80426;DHT22;69766;51.476;5.704;2023-09-07T13:28:49;36.30;55.30
80426;DHT22;69766;51.476;5.704;2023-09-07T13:31:15;37.30;54.60
80426;DHT22;69766;51.476;5.704;2023-09-07T13:33:41;37.10;55.20
80426;DHT22;69766;51.476;5.704;2023-09-07T13:36:07;36.20;55.80
80426;DHT22;69766;51.476;5.704;2023-09-07T13:38:35;36.00;57.50
80426;DHT22;69766;51.476;5.704;2023-09-07T13:41:00;35.80;56.00
80426;DHT22;69766;51.476;5.704;2023-09-07T13:43:26;35.50;57.80
80426;DHT22;69766;51.476;5.704;2023-09-07T13:45:52;36.50;56.70
80426;DHT22;69766;51.476;5.704;2023-09-07T13:48:17;36.50;55.90
80426;DHT22;69766;51.476;5.704;2023-09-07T13:50:43;38.00;52.60
80426;DHT22;69766;51.476;5.704;2023-09-07T13:53:09;38.10;54.00
80426;DHT22;69766;51.476;5.704;2023-09-07T13:55:34;37.50;52.70
80426;DHT22;69766;51.476;5.704;2023-09-07T13:58:00;36.70;54.50
80426;DHT22;69766;51.476;5.704;2023-09-07T14:00:26;36.40;56.70
80426;DHT22;69766;51.476;5.704;2023-09-07T14:02:52;36.90;55.70
80426;DHT22;69766;51.476;5.704;2023-09-07T14:05:18;36.60;55.20
80426;DHT22;69766;51.476;5.704;2023-09-07T14:07:44;36.30;54.20
80426;DHT22;69766;51.476;5.704;2023-09-07T14:10:09;36.00;54.60
80426;DHT22;69766;51.476;5.704;2023-09-07T14:12:35;36.20;56.20
80426;DHT22;69766;51.476;5.704;2023-09-07T14:15:01;35.70;56.10
80426;DHT22;69766;51.476;5.704;2023-09-07T14:17:26;35.40;57.10
80426;DHT22;69766;51.476;5.704;2023-09-07T14:19:52;35.30;57.80
80426;DHT22;69766;51.476;5.704;2023-09-07T14:22:18;34.80;54.90
80426;DHT22;69766;51.476;5.704;2023-09-07T14:24:44;36.00;57.30
80426;DHT22;69766;51.476;5.704;2023-09-07T14:27:17;35.80;57.80
80426;DHT22;69766;51.476;5.704;2023-09-07T14:29:43;35.50;57.40
80426;DHT22;69766;51.476;5.704;2023-09-07T14:32:08;35.60;57.70
80426;DHT22;69766;51.476;5.704;2023-09-07T14:34:35;35.80;56.70
80426;DHT22;69766;51.476;5.704;2023-09-07T14:37:01;34.60;60.30
80426;DHT22;69766;51.476;5.704;2023-09-07T14:39:27;35.00;59.20
80426;DHT22;69766;51.476;5.704;2023-09-07T14:41:53;34.70;58.70
80426;DHT22;69766;51.476;5.704;2023-09-07T14:44:19;35.10;57.80
80426;DHT22;69766;51.476;5.704;2023-09-07T14:46:45;35.70;56.90
80426;DHT22;69766;51.476;5.704;2023-09-07T14:49:14;35.70;56.20
80426;DHT22;69766;51.476;5.704;2023-09-07T14:51:40;35.40;57.40
80426;DHT22;69766;51.476;5.704;2023-09-07T14:54:06;35.90;57.70
80426;DHT22;69766;51.476;5.704;2023-09-07T14:56:32;36.30;55.30
80426;DHT22;69766;51.476;5.704;2023-09-07T14:59:01;35.40;55.30
80426;DHT22;69766;51.476;5.704;2023-09-07T15:01:26;35.20;57.40
80426;DHT22;69766;51.476;5.704;2023-09-07T15:03:52;35.40;57.50
80426;DHT22;69766;51.476;5.704;2023-09-07T15:06:18;35.50;56.50
80426;DHT22;69766;51.476;5.704;2023-09-07T15:08:44;35.30;55.10
80426;DHT22;69766;51.476;5.704;2023-09-07T15:11:10;34.90;55.00
80426;DHT22;69766;51.476;5.704;2023-09-07T15:13:37;34.70;57.50
80426;DHT22;69766;51.476;5.704;2023-09-07T15:16:03;34.10;58.10
80426;DHT22;69766;51.476;5.704;2023-09-07T15:18:30;34.10;59.00
80426;DHT22;69766;51.476;5.704;2023-09-07T15:20:55;34.20;56.30
80426;DHT22;69766;51.476;5.704;2023-09-07T15:23:22;34.60;58.40
80426;DHT22;69766;51.476;5.704;2023-09-07T15:25:48;34.20;58.40
80426;DHT22;69766;51.476;5.704;2023-09-07T15:28:13;34.80;56.00
80426;DHT22;69766;51.476;5.704;2023-09-07T15:30:42;34.50;57.00